Terminal Aerodrome Forecast
Issued by NWS

Home | Current Version | Previous Version | Text Only | Print | Product List | Glossary On
Versions: 1 2 3 4 5 6 7 8 9 10 11 12 13 14
000
FTUS45 KVEF 040539
TAFVGT
TAF
KVGT 040539Z 0406/0506 22007KT P6SM FEW120
     FM041400 VRB06KT P6SM FEW120
     FM041900 15010KT P6SM SCT100 SCT250
     FM042100 21010G18KT P6SM SCT100 SCT250
     FM050300 21009KT P6SM SCT100 SCT250=

USA.gov is the U.S. government's official web portal to all federal, state and local government web resources and services.